Time;durP1;ratioP1;P1;durP2;ratioP2;P2;SDS_P1;SDS_P2;PMS_P1;PMS_P2;Temp;Humidity;BMP_temperature;BMP_pressure;BME280_temperature;BME280_humidity;BME280_pressure;Samples;Min_cycle;Max_cycle;Signal;HPM_P1;HPM_P2
2023/03/06 00:00:23;;;;;;;12.27;11.15;;;;;;;3.33;93.59;100801.19;5013880;28;20140;-56
2023/03/06 00:02:49;;;;;;;11.25;10.45;;;;;;;3.32;93.22;100795.06;5031783;28;20025;-56
2023/03/06 00:05:15;;;;;;;13.10;11.38;;;;;;;3.22;93.11;100792.81;5030372;28;20132;-57
2023/03/06 00:07:41;;;;;;;12.00;11.10;;;;;;;3.17;93.30;100778.03;5031541;28;20083;-56
2023/03/06 00:10:07;;;;;;;10.77;9.88;;;;;;;3.23;93.38;100787.47;5030489;28;20396;-56
2023/03/06 00:12:32;;;;;;;11.98;10.95;;;;;;;3.20;92.65;100782.34;5031130;28;20037;-56
2023/03/06 00:14:58;;;;;;;13.20;11.07;;;;;;;3.25;93.73;100779.56;5034941;28;20048;-56
2023/03/06 00:17:23;;;;;;;12.70;11.55;;;;;;;3.21;93.90;100778.81;5031517;28;20123;-57
2023/03/06 00:19:49;;;;;;;12.70;11.55;;;;;;;3.23;93.13;100784.00;5029937;28;20083;-56
2023/03/06 00:22:15;;;;;;;12.25;11.25;;;;;;;3.08;92.81;100764.34;5031510;28;20041;-56
2023/03/06 00:24:41;;;;;;;12.52;11.48;;;;;;;3.12;93.27;100763.34;5033113;28;20033;-56
2023/03/06 00:27:08;;;;;;;13.60;12.40;;;;;;;3.11;93.75;100766.88;5034620;28;20035;-56
2023/03/06 00:29:33;;;;;;;13.77;12.68;;;;;;;3.02;93.72;100768.03;5035316;28;20017;-56
2023/03/06 00:31:59;;;;;;;12.77;11.57;;;;;;;2.95;93.49;100756.88;5033922;28;20029;-56
2023/03/06 00:34:25;;;;;;;14.73;12.85;;;;;;;3.06;93.43;100759.16;5034793;28;20060;-57
2023/03/06 00:36:51;;;;;;;14.02;12.85;;;;;;;3.08;94.17;100762.59;5035169;28;20030;-57
2023/03/06 00:39:19;;;;;;;12.77;11.45;;;;;;;3.08;93.06;100759.94;5034353;28;20032;-56
2023/03/06 00:41:44;;;;;;;14.18;12.93;;;;;;;3.07;93.48;100760.03;5034358;28;20021;-57
2023/03/06 00:44:10;;;;;;;14.40;13.05;;;;;;;3.05;93.44;100751.31;5034823;28;20076;-56
2023/03/06 00:46:35;;;;;;;14.20;12.75;;;;;;;2.96;93.82;100740.19;5035106;28;20029;-57
2023/03/06 00:49:01;;;;;;;14.13;12.80;;;;;;;2.91;93.82;100738.63;5034974;28;20587;-56
2023/03/06 00:51:26;;;;;;;14.57;13.18;;;;;;;2.93;93.06;100747.34;5033994;28;20380;-56
2023/03/06 00:53:51;;;;;;;14.85;13.40;;;;;;;2.69;93.12;100728.84;5016807;28;20124;-56
2023/03/06 00:56:18;;;;;;;15.18;13.77;;;;;;;2.63;94.64;100729.03;5034565;28;20108;-57
2023/03/06 00:58:46;;;;;;;13.98;12.55;;;;;;;2.75;93.84;100746.16;5035029;28;20017;-56
2023/03/06 01:01:11;;;;;;;15.38;13.77;;;;;;;2.70;94.84;100745.47;5034367;28;20060;-57
2023/03/06 01:03:37;;;;;;;14.98;13.27;;;;;;;2.73;93.99;100743.59;5033747;28;20179;-57
2023/03/06 01:06:02;;;;;;;16.00;14.43;;;;;;;2.69;93.71;100731.47;5033410;28;20497;-57
2023/03/06 01:08:28;;;;;;;14.93;13.18;;;;;;;2.66;94.02;100736.81;5033696;28;20021;-56
2023/03/06 01:10:54;;;;;;;14.63;13.30;;;;;;;2.73;93.64;100729.59;5034163;28;20481;-56
2023/03/06 01:13:19;;;;;;;15.27;13.77;;;;;;;2.68;93.73;100727.13;5034168;28;20029;-57
2023/03/06 01:15:44;;;;;;;19.55;14.50;;;;;;;2.63;93.46;100725.56;5033175;28;20029;-56
2023/03/06 01:18:10;;;;;;;17.17;13.60;;;;;;;2.55;93.53;100720.56;5033219;28;20034;-56
2023/03/06 01:20:35;;;;;;;14.38;13.02;;;;;;;2.46;93.71;100728.72;5033368;28;20051;-57
2023/03/06 01:23:00;;;;;;;14.68;13.27;;;;;;;2.44;93.79;100723.53;5033905;28;20091;-56
2023/03/06 01:25:26;;;;;;;15.20;13.80;;;;;;;2.38;93.36;100726.34;5034143;28;20025;-56
2023/03/06 01:27:52;;;;;;;15.98;13.80;;;;;;;2.36;93.86;100725.53;5033063;28;20029;-56
2023/03/06 01:30:18;;;;;;;15.15;13.70;;;;;;;2.29;93.83;100716.13;5032948;28;20021;-56
2023/03/06 01:32:44;;;;;;;16.27;14.68;;;;;;;2.27;93.80;100710.94;5033892;28;20025;-56
2023/03/06 01:35:10;;;;;;;16.85;15.07;;;;;;;2.20;94.87;100698.91;5033335;28;20108;-56
2023/03/06 01:37:39;;;;;;;14.90;13.35;;;;;;;2.21;94.43;100716.38;5034088;28;20118;-57
2023/03/06 01:40:06;;;;;;;16.30;14.60;;;;;;;2.18;94.46;100721.72;5032053;28;20499;-56
2023/03/06 01:42:32;;;;;;;15.23;13.77;;;;;;;2.11;94.45;100701.81;5033293;28;20043;-56
2023/03/06 01:45:07;;;;;;;16.02;14.52;;;;;;;2.14;94.92;100716.59;5032858;28;20105;-56
2023/03/06 01:47:32;;;;;;;15.05;13.55;;;;;;;2.13;94.76;100710.50;5032838;28;20033;-56
2023/03/06 01:49:59;;;;;;;15.82;14.23;;;;;;;2.17;94.79;100713.88;5032895;28;20494;-56
2023/03/06 01:52:30;;;;;;;15.95;14.20;;;;;;;2.08;94.37;100711.53;5032367;28;20034;-56
2023/03/06 01:55:23;;;;;;;14.93;13.50;;;;;;;2.04;94.14;100697.66;5032594;28;20047;-56
2023/03/06 01:57:53;;;;;;;15.65;13.55;;;;;;;2.02;94.15;100702.94;5032413;28;20041;-55
2023/03/06 02:00:23;;;;;;;;;;;;;;;2.19;94.03;100698.97;5033248;28;20108;-56
2023/03/06 02:02:51;;;;;;;;;;;;;;;2.22;93.42;100702.34;5032795;28;19971;-56
2023/03/06 02:05:17;;;;;;;12.85;10.30;;;;;;;2.09;93.02;100697.50;5032674;28;20760;-56
2023/03/06 02:07:44;;;;;;;15.10;13.68;;;;;;;1.97;93.21;100697.00;5032572;28;20029;-56
2023/03/06 02:10:10;;;;;;;16.60;12.95;;;;;;;1.96;93.68;100691.78;5031609;28;20033;-57
2023/03/06 02:12:39;;;;;;;14.32;12.40;;;;;;;1.96;93.53;100690.03;5030863;28;20039;-56
2023/03/06 02:15:05;;;;;;;13.38;12.18;;;;;;;1.92;92.67;100687.56;5031048;28;20443;-56
2023/03/06 02:17:34;;;;;;;16.30;13.30;;;;;;;1.91;92.88;100680.56;5031194;28;20033;-56
2023/03/06 02:20:02;;;;;;;15.63;13.52;;;;;;;1.85;93.07;100686.00;5031116;28;20025;-56
2023/03/06 02:22:49;;;;;;;14.30;12.80;;;;;;;1.83;93.50;100683.44;5030900;28;20029;-56
2023/03/06 02:25:31;;;;;;;14.55;13.00;;;;;;;1.85;93.16;100678.97;5031627;28;20033;-57
2023/03/06 02:27:56;;;;;;;13.37;12.17;;;;;;;1.72;93.01;100672.41;5030948;28;20052;-56
2023/03/06 02:30:24;;;;;;;13.98;12.55;;;;;;;1.68;93.70;100662.94;5032198;28;20044;-57
2023/03/06 02:32:49;;;;;;;15.10;13.33;;;;;;;1.73;93.46;100664.47;5030548;28;20079;-57
2023/03/06 02:35:38;;;;;;;16.23;14.32;;;;;;;1.67;93.95;100661.19;5031620;28;20025;-57
2023/03/06 02:38:12;;;;;;;14.90;13.40;;;;;;;1.67;93.72;100653.31;5032075;28;20444;-57
2023/03/06 02:40:40;;;;;;;14.20;12.70;;;;;;;1.59;93.61;100664.06;5031431;28;20092;-56
2023/03/06 02:43:06;;;;;;;15.13;13.30;;;;;;;1.58;93.92;100651.81;4993773;28;1097265;-56
2023/03/06 02:45:38;;;;;;;15.63;14.03;;;;;;;1.50;94.61;100648.56;5030609;28;20065;-56
2023/03/06 02:48:04;;;;;;;15.33;13.83;;;;;;;1.49;94.75;100644.22;5031549;28;20551;-56
2023/03/06 02:50:30;;;;;;;16.37;14.77;;;;;;;1.48;94.92;100638.16;5032534;28;20079;-57
2023/03/06 02:52:57;;;;;;;17.43;15.23;;;;;;;1.49;94.51;100642.47;5032244;28;20063;-56
2023/03/06 02:55:25;;;;;;;16.15;14.50;;;;;;;1.43;94.44;100642.66;5032453;28;20052;-56
2023/03/06 02:57:50;;;;;;;15.93;14.40;;;;;;;1.42;95.16;100638.31;5032837;28;20056;-56
2023/03/06 03:00:16;;;;;;;17.00;13.90;;;;;;;1.43;94.93;100641.78;5032527;28;20107;-56
2023/03/06 03:02:42;;;;;;;18.63;16.23;;;;;;;1.42;95.16;100640.94;5031172;28;20032;-57
2023/03/06 03:05:08;;;;;;;18.00;15.87;;;;;;;1.40;95.28;100636.66;5032339;28;20033;-56
2023/03/06 03:07:33;;;;;;;17.70;15.30;;;;;;;1.41;94.92;100628.72;5047905;28;20032;-56
2023/03/06 03:09:59;;;;;;;17.77;15.90;;;;;;;1.32;95.17;100624.63;5032038;28;20075;-57
2023/03/06 03:12:26;;;;;;;17.50;15.70;;;;;;;1.31;95.73;100622.91;5032386;28;20021;-56
2023/03/06 03:14:51;;;;;;;17.00;15.20;;;;;;;1.34;95.95;100625.44;5030921;28;20025;-56
2023/03/06 03:17:16;;;;;;;16.60;14.90;;;;;;;1.31;95.82;100629.91;5032393;28;20404;-56
2023/03/06 03:19:42;;;;;;;17.17;15.40;;;;;;;1.30;95.43;100626.44;5033207;28;20029;-56
2023/03/06 03:22:07;;;;;;;17.53;15.83;;;;;;;1.24;95.02;100607.41;5032001;28;20116;-56
2023/03/06 03:24:32;;;;;;;17.43;15.43;;;;;;;1.28;95.29;100630.00;5031802;28;20021;-56
2023/03/06 03:26:58;;;;;;;18.40;14.93;;;;;;;1.22;94.25;100627.56;5032456;28;20029;-56
2023/03/06 03:29:24;;;;;;;17.43;15.53;;;;;;;1.23;93.97;100621.41;5047857;28;20083;-57
2023/03/06 03:31:49;;;;;;;18.53;16.53;;;;;;;1.11;94.06;100615.59;5030735;28;20447;-56
2023/03/06 03:34:18;;;;;;;18.30;15.70;;;;;;;1.19;94.03;100615.41;5029983;28;20045;-57
2023/03/06 03:36:44;;;;;;;19.02;16.60;;;;;;;1.22;93.79;100609.22;5030387;28;20112;-56
2023/03/06 03:39:09;;;;;;;18.57;16.40;;;;;;;1.12;93.64;100591.16;5032129;28;20443;-57
2023/03/06 03:41:35;;;;;;;20.33;17.03;;;;;;;1.21;93.31;100605.75;5029926;28;20087;-56
2023/03/06 03:44:00;;;;;;;18.47;16.57;;;;;;;1.18;94.09;100597.09;5031483;28;20212;-56
2023/03/06 03:46:26;;;;;;;20.08;16.40;;;;;;;1.21;94.02;100602.28;5031772;28;20112;-57
2023/03/06 03:48:51;;;;;;;20.50;17.33;;;;;;;1.21;93.93;100599.66;5031181;28;20021;-56
2023/03/06 03:51:17;;;;;;;18.53;15.60;;;;;;;1.20;93.89;100590.91;5029934;28;20026;-56
2023/03/06 03:53:43;;;;;;;21.90;18.53;;;;;;;1.22;94.22;100586.50;5031427;28;20166;-57
2023/03/06 03:56:09;;;;;;;19.70;17.13;;;;;;;1.16;93.65;100589.28;5031054;28;20028;-56
2023/03/06 03:58:34;;;;;;;19.13;17.13;;;;;;;1.22;94.45;100583.03;5031791;28;20063;-56
2023/03/06 04:01:00;;;;;;;23.27;17.67;;;;;;;1.28;94.87;100580.22;5031537;28;20029;-56
2023/03/06 04:03:25;;;;;;;21.93;19.47;;;;;;;1.14;94.63;100580.59;5031432;28;20369;-57
2023/03/06 04:05:53;;;;;;;21.87;18.10;;;;;;;1.09;94.85;100569.44;5031511;28;20114;-56
2023/03/06 04:08:19;;;;;;;22.93;18.87;;;;;;;1.09;95.12;100561.56;5031640;28;20172;-56
2023/03/06 04:10:45;;;;;;;23.23;20.07;;;;;;;1.07;94.28;100566.84;5031321;28;20053;-56
2023/03/06 04:13:10;;;;;;;24.37;19.43;;;;;;;1.16;95.11;100575.34;5030409;28;20171;-56
2023/03/06 04:15:36;;;;;;;27.77;19.83;;;;;;;1.13;95.14;100566.66;5030040;28;20025;-56
2023/03/06 04:18:01;;;;;;;28.67;22.43;;;;;;;1.18;95.78;100571.78;5031460;28;20041;-56
2023/03/06 04:20:27;;;;;;;27.70;22.10;;;;;;;1.18;95.54;100563.94;5030409;28;20028;-56
2023/03/06 04:22:52;;;;;;;27.80;22.70;;;;;;;1.17;95.48;100563.94;5046647;28;20112;-56
2023/03/06 04:25:18;;;;;;;32.30;23.97;;;;;;;1.21;95.33;100566.44;5030842;28;20028;-56
2023/03/06 04:27:43;;;;;;;30.30;23.87;;;;;;;1.19;95.40;100565.63;5030396;28;20028;-56
2023/03/06 04:30:12;;;;;;;29.87;24.77;;;;;;;1.19;95.17;100562.16;5031429;28;20029;-57
2023/03/06 04:32:37;;;;;;;31.00;23.67;;;;;;;1.17;95.59;100556.94;5030152;28;20476;-57
2023/03/06 04:35:03;;;;;;;32.10;24.67;;;;;;;1.20;95.33;100558.63;5029082;28;20029;-56
2023/03/06 04:37:28;;;;;;;29.57;21.47;;;;;;;1.15;96.07;100558.78;5031635;28;20029;-56
2023/03/06 04:39:56;;;;;;;30.23;22.40;;;;;;;1.16;96.27;100554.38;5029843;28;20029;-57
2023/03/06 04:42:21;;;;;;;30.57;22.43;;;;;;;1.17;96.06;100558.72;5030754;28;20041;-56
2023/03/06 04:44:47;;;;;;;33.40;26.90;;;;;;;1.13;96.60;100558.81;5031013;28;20036;-56
2023/03/06 04:47:13;;;;;;;33.77;26.47;;;;;;;1.10;96.80;100540.56;5030991;28;20018;-56
2023/03/06 04:49:38;;;;;;;34.10;25.43;;;;;;;1.14;97.50;100543.94;5031001;28;20104;-57
2023/03/06 04:52:04;;;;;;;30.87;23.50;;;;;;;1.20;97.01;100540.28;5031076;28;20029;-57
2023/03/06 04:54:29;;;;;;;34.93;27.73;;;;;;;1.21;97.19;100545.50;5030288;28;20018;-56
2023/03/06 04:56:55;;;;;;;34.13;26.43;;;;;;;1.23;96.88;100548.06;5030031;28;20428;-56
2023/03/06 04:59:20;;;;;;;35.03;27.13;;;;;;;1.18;97.09;100542.09;5030933;28;20033;-56
2023/03/06 05:01:45;;;;;;;37.27;28.87;;;;;;;1.22;97.55;100541.13;5030878;28;20487;-56
2023/03/06 05:04:11;;;;;;;38.57;27.73;;;;;;;1.17;97.17;100540.38;5029317;28;20017;-57
2023/03/06 05:06:36;;;;;;;36.77;26.90;;;;;;;1.22;97.46;100541.97;5029657;28;20116;-56
2023/03/06 05:09:02;;;;;;;34.93;26.97;;;;;;;1.18;97.64;100540.34;5032410;28;20053;-56
2023/03/06 05:11:28;;;;;;;39.43;28.80;;;;;;;1.22;98.00;100541.97;5033214;28;20026;-57
2023/03/06 05:13:53;;;;;;;37.20;27.07;;;;;;;1.21;97.90;100537.63;5032757;28;20064;-57
2023/03/06 05:16:18;;;;;;;43.00;30.17;;;;;;;1.22;98.49;100535.88;5032867;28;20033;-57
2023/03/06 05:18:44;;;;;;;44.10;29.85;;;;;;;1.24;98.71;100536.69;5034341;28;20078;-57
2023/03/06 05:21:09;;;;;;;36.93;25.57;;;;;;;1.32;98.46;100529.44;5034401;28;20034;-56
2023/03/06 05:23:37;;;;;;;41.70;30.53;;;;;;;1.22;98.73;100528.00;5033047;28;20048;-56
2023/03/06 05:26:10;;;;;;;41.95;29.85;;;;;;;1.28;99.04;100538.31;5033877;28;20040;-56
2023/03/06 05:28:38;;;;;;;40.40;27.77;;;;;;;1.30;98.70;100528.66;5033418;28;20053;-56
2023/03/06 05:31:04;;;;;;;44.50;32.20;;;;;;;1.24;98.81;100532.31;5031666;28;20116;-56
2023/03/06 05:33:33;;;;;;;42.23;30.97;;;;;;;1.14;99.25;100509.91;5033884;28;20104;-56
2023/03/06 05:35:59;;;;;;;39.30;27.77;;;;;;;1.30;98.70;100523.41;5033997;28;20021;-56
2023/03/06 05:38:24;;;;;;;43.47;31.60;;;;;;;1.24;99.02;100515.75;5033346;28;20271;-56
2023/03/06 05:40:52;;;;;;;42.83;30.70;;;;;;;1.24;99.10;100518.38;5032539;28;20086;-56
2023/03/06 05:43:21;;;;;;;40.93;28.63;;;;;;;1.22;99.88;100517.53;5033708;28;20156;-56
2023/03/06 05:45:49;;;;;;;45.73;31.93;;;;;;;1.23;99.11;100509.63;5032718;28;20036;-56
2023/03/06 05:48:14;;;;;;;45.23;33.00;;;;;;;1.19;99.98;100513.25;5033973;28;20037;-57
2023/03/06 05:50:39;;;;;;;44.47;32.40;;;;;;;1.21;100.00;100515.84;5033637;28;20509;-56
2023/03/06 05:53:07;;;;;;;40.90;28.13;;;;;;;1.26;100.00;100520.00;5032270;28;20096;-56
2023/03/06 05:55:33;;;;;;;45.70;27.97;;;;;;;1.31;100.00;100512.03;5033365;28;20365;-56
2023/03/06 05:57:58;;;;;;;47.40;34.67;;;;;;;1.35;100.00;100517.13;5033863;28;20032;-56
2023/03/06 06:00:24;;;;;;;45.37;33.07;;;;;;;1.29;99.80;100506.81;5032278;28;20108;-57
2023/03/06 06:02:49;;;;;;;44.77;31.93;;;;;;;1.31;99.97;100510.25;5033264;28;20088;-56
2023/03/06 06:05:15;;;;;;;44.35;31.90;;;;;;;1.26;100.00;100509.53;5032087;28;20032;-56
2023/03/06 06:07:40;;;;;;;49.97;33.43;;;;;;;1.27;100.00;100515.66;5033540;28;20053;-56
2023/03/06 06:10:07;;;;;;;47.05;33.60;;;;;;;1.21;100.00;100503.59;5032996;28;20032;-56
2023/03/06 06:12:33;;;;;;;42.20;29.97;;;;;;;1.25;100.00;100520.06;5033319;28;20383;-56
2023/03/06 06:15:01;;;;;;;47.77;35.33;;;;;;;1.24;100.00;100520.97;5033071;28;20027;-56
2023/03/06 06:17:26;;;;;;;49.53;34.40;;;;;;;1.27;100.00;100510.41;5033694;28;20029;-56
2023/03/06 06:19:51;;;;;;;47.95;33.78;;;;;;;1.28;100.00;100519.97;5032551;28;20571;-56
2023/03/06 06:22:17;;;;;;;46.88;32.50;;;;;;;1.28;100.00;100512.13;5033004;28;20075;-56
2023/03/06 06:24:42;;;;;;;47.97;32.10;;;;;;;1.33;100.00;100515.47;5032677;28;20100;-56
2023/03/06 06:27:08;;;;;;;49.20;36.67;;;;;;;1.30;100.00;100505.06;5034471;28;20030;-56
2023/03/06 06:29:34;;;;;;;51.08;34.90;;;;;;;1.33;100.00;100508.44;5032070;28;20040;-56
2023/03/06 06:32:00;;;;;;;49.20;33.00;;;;;;;1.21;100.00;100494.88;5032627;28;20029;-56
2023/03/06 06:34:26;;;;;;;44.03;29.83;;;;;;;1.32;100.00;100509.38;5033136;28;20022;-56
2023/03/06 06:36:54;;;;;;;45.00;30.58;;;;;;;1.31;100.00;100515.50;5033372;28;20024;-56
2023/03/06 06:39:21;;;;;;;46.70;34.73;;;;;;;1.31;100.00;100510.25;5031823;28;20021;-56
2023/03/06 06:41:50;;;;;;;50.53;35.88;;;;;;;1.29;100.00;100511.19;5030743;28;20485;-56
2023/03/06 06:44:16;;;;;;;48.37;34.53;;;;;;;1.33;100.00;100511.06;5031571;28;20045;-56
2023/03/06 06:46:44;;;;;;;49.70;35.17;;;;;;;1.35;100.00;100517.13;5032800;28;20096;-57
2023/03/06 06:49:12;;;;;;;53.93;36.27;;;;;;;1.35;100.00;100517.13;5031620;28;20021;-56
2023/03/06 06:51:38;;;;;;;46.17;30.33;;;;;;;1.38;100.00;100513.53;5032392;28;20512;-56
2023/03/06 06:54:04;;;;;;;50.22;38.08;;;;;;;1.40;100.00;100510.88;5032696;28;20025;-56
2023/03/06 06:56:29;;;;;;;55.10;38.13;;;;;;;1.43;100.00;100510.78;5031940;28;20018;-56
2023/03/06 06:58:58;;;;;;;56.75;38.10;;;;;;;1.44;100.00;100507.25;5031223;28;20029;-56
2023/03/06 07:01:24;;;;;;;49.78;35.00;;;;;;;1.49;100.00;100508.81;5031229;28;20029;-56
2023/03/06 07:03:49;;;;;;;53.08;37.83;;;;;;;1.41;100.00;100504.72;5030932;28;20107;-56
2023/03/06 07:06:15;;;;;;;50.73;36.30;;;;;;;1.54;100.00;100513.94;5032127;28;20389;-56
2023/03/06 07:08:43;;;;;;;49.28;33.35;;;;;;;1.51;100.00;100522.75;5032436;28;20091;-56
2023/03/06 07:11:12;;;;;;;57.93;39.17;;;;;;;1.57;100.00;100512.06;5031637;28;20106;-56
2023/03/06 07:13:38;;;;;;;55.55;36.60;;;;;;;1.54;100.00;100517.41;5031988;28;20152;-56
2023/03/06 07:16:03;;;;;;;55.97;37.17;;;;;;;1.54;100.00;100516.56;5030724;28;20492;-56
2023/03/06 07:18:29;;;;;;;57.78;39.17;;;;;;;1.57;100.00;100522.56;5032319;28;20392;-56
2023/03/06 07:20:55;;;;;;;55.90;38.53;;;;;;;1.67;100.00;100532.75;5030044;28;20091;-56
2023/03/06 07:23:21;;;;;;;55.17;39.10;;;;;;;1.65;100.00;100518.81;5026138;28;20040;-57
2023/03/06 07:25:46;;;;;;;59.60;40.30;;;;;;;1.67;100.00;100519.63;5018646;28;20022;-57
2023/03/06 07:28:12;;;;;;;62.55;42.70;;;;;;;1.68;100.00;100516.13;5020823;28;20061;-57
2023/03/06 07:30:39;;;;;;;58.08;41.53;;;;;;;1.73;100.00;100519.44;5026077;28;20091;-56
2023/03/06 07:33:05;;;;;;;60.65;40.65;;;;;;;1.72;100.00;100515.13;5031354;28;20025;-57
2023/03/06 07:35:30;;;;;;;62.53;40.42;;;;;;;1.73;100.00;100517.66;5031296;28;20436;-57
2023/03/06 07:37:56;;;;;;;57.97;39.17;;;;;;;1.80;100.00;100513.97;5030977;28;20024;-56
2023/03/06 07:40:22;;;;;;;60.65;41.55;;;;;;;1.87;100.00;100517.22;5029901;28;20426;-57
2023/03/06 07:42:48;;;;;;;61.63;44.15;;;;;;;1.90;100.00;100509.28;5030521;28;20823;-56
2023/03/06 07:45:14;;;;;;;60.30;40.83;;;;;;;1.96;100.00;100505.59;5031379;28;20057;-58
2023/03/06 07:47:40;;;;;;;58.55;38.17;;;;;;;2.03;100.00;100513.22;5031179;28;20104;-58
2023/03/06 07:50:06;;;;;;;64.75;44.75;;;;;;;2.07;100.00;100508.72;5031293;28;20395;-57
2023/03/06 07:52:35;;;;;;;63.45;42.95;;;;;;;2.11;100.00;100512.09;5029770;28;20048;-57
2023/03/06 07:55:00;;;;;;;59.53;43.30;;;;;;;2.15;100.00;100511.09;5030425;28;20032;-58
2023/03/06 07:57:26;;;;;;;61.03;43.70;;;;;;;2.16;100.00;100512.81;5031738;28;20025;-58
2023/03/06 07:59:51;;;;;;;68.22;46.15;;;;;;;2.14;100.00;100522.47;5031168;28;20036;-58
2023/03/06 08:02:17;;;;;;;62.00;44.60;;;;;;;2.19;100.00;100512.69;5028007;28;20036;-58
2023/03/06 08:04:43;;;;;;;62.90;43.47;;;;;;;2.21;100.00;100516.13;5031114;28;20464;-58
2023/03/06 08:07:08;;;;;;;59.65;43.13;;;;;;;2.23;100.00;100516.91;5030805;28;20021;-57
2023/03/06 08:09:34;;;;;;;63.03;43.05;;;;;;;2.17;100.00;100522.38;5029496;28;20049;-57
2023/03/06 08:11:59;;;;;;;67.03;44.83;;;;;;;2.14;100.00;100518.09;5031320;28;20512;-58
2023/03/06 08:14:25;;;;;;;56.95;41.42;;;;;;;2.19;100.00;100516.16;5029608;28;20538;-57
2023/03/06 08:16:50;;;;;;;59.42;41.92;;;;;;;2.19;100.00;100531.06;5027847;28;20080;-58
2023/03/06 08:19:16;;;;;;;59.80;43.22;;;;;;;2.21;100.00;100524.84;5028046;28;20025;-58
2023/03/06 08:21:44;;;;;;;59.60;41.55;;;;;;;2.17;100.00;100511.88;5029405;28;20035;-58
2023/03/06 08:24:11;;;;;;;61.90;43.30;;;;;;;2.18;100.00;100514.47;5021076;28;20572;-58
2023/03/06 08:26:37;;;;;;;60.42;42.20;;;;;;;2.27;100.00;100523.78;5022917;28;20038;-58
2023/03/06 08:29:02;;;;;;;58.60;42.90;;;;;;;2.27;100.00;100519.41;5023264;28;20489;-58
2023/03/06 08:31:33;;;;;;;57.63;41.58;;;;;;;2.19;100.00;100508.31;5023171;28;20104;-58
2023/03/06 08:34:04;;;;;;;53.35;40.33;;;;;;;2.33;100.00;100523.59;5025144;28;20494;-57
2023/03/06 08:36:30;;;;;;;52.65;40.00;;;;;;;2.45;100.00;100525.78;5023048;28;20026;-57
2023/03/06 08:38:58;;;;;;;55.85;39.88;;;;;;;2.58;100.00;100523.56;5028537;28;20100;-57
2023/03/06 08:41:24;;;;;;;52.40;40.28;;;;;;;2.59;100.00;100509.56;5029643;28;20021;-58
2023/03/06 08:43:50;;;;;;;54.20;39.78;;;;;;;2.82;100.00;100523.59;5006815;28;20127;-58
2023/03/06 08:46:17;;;;;;;52.03;38.03;;;;;;;2.88;100.00;100526.00;5028707;28;20041;-58
2023/03/06 08:48:46;;;;;;;52.63;39.22;;;;;;;2.91;100.00;100518.00;5033092;28;20401;-58
2023/03/06 08:51:11;;;;;;;54.78;40.58;;;;;;;2.95;100.00;100527.50;5027331;28;20022;-58
2023/03/06 08:53:37;;;;;;;50.95;41.42;;;;;;;2.96;100.00;100514.31;5030792;28;20036;-58
2023/03/06 08:56:03;;;;;;;51.38;38.75;;;;;;;3.06;100.00;100517.47;5031093;28;20076;-58
2023/03/06 08:58:29;;;;;;;49.08;36.08;;;;;;;3.11;100.00;100527.78;5026071;28;20502;-58
2023/03/06 09:00:55;;;;;;;47.55;33.58;;;;;;;3.13;100.00;100518.94;5023201;28;20030;-57
2023/03/06 09:03:22;;;;;;;45.30;36.53;;;;;;;3.20;100.00;100532.69;5027467;28;20394;-57
2023/03/06 09:05:47;;;;;;;43.60;34.95;;;;;;;3.30;100.00;100533.22;5020241;28;20112;-58
2023/03/06 09:08:13;;;;;;;45.95;36.45;;;;;;;3.34;100.00;100534.81;5033870;28;20436;-58
2023/03/06 09:10:38;;;;;;;48.35;37.80;;;;;;;3.39;100.00;100528.44;5027427;28;20021;-58
2023/03/06 09:13:04;;;;;;;49.00;38.25;;;;;;;3.52;100.00;100522.72;5029562;28;20159;-58
2023/03/06 09:15:32;;;;;;;47.28;37.10;;;;;;;3.58;100.00;100528.59;5044118;28;20484;-58
2023/03/06 09:17:57;;;;;;;47.28;36.88;;;;;;;3.61;100.00;100531.09;5038701;28;20087;-58
2023/03/06 09:20:22;;;;;;;44.53;36.42;;;;;;;3.58;100.00;100533.84;5025527;28;20022;-58
2023/03/06 09:22:48;;;;;;;39.83;33.50;;;;;;;3.54;100.00;100529.63;5022599;28;20065;-58
2023/03/06 09:25:18;;;;;;;44.28;37.72;;;;;;;3.63;100.00;100517.91;5040698;28;20029;-58
2023/03/06 09:27:44;;;;;;;42.83;38.05;;;;;;;3.69;100.00;100530.78;5028475;28;20052;-58
2023/03/06 09:30:11;;;;;;;45.47;36.75;;;;;;;3.73;100.00;100527.13;5023798;28;20048;-58
2023/03/06 09:32:36;;;;;;;43.05;35.58;;;;;;;3.79;100.00;100528.66;5024357;28;20033;-58
2023/03/06 09:35:02;;;;;;;42.75;37.53;;;;;;;3.63;100.00;100502.97;5027794;28;20380;-57
2023/03/06 09:37:29;;;;;;;42.30;36.95;;;;;;;3.86;100.00;100541.50;5027588;28;20029;-57
2023/03/06 09:39:55;;;;;;;41.75;37.20;;;;;;;3.96;100.00;100541.97;5032869;28;20448;-57
2023/03/06 09:42:22;;;;;;;41.40;36.83;;;;;;;4.01;100.00;100534.75;5030891;28;21420;-57
2023/03/06 09:44:54;;;;;;;40.88;35.63;;;;;;;4.10;99.16;100541.41;5027452;28;20029;-58
2023/03/06 09:47:52;;;;;;;41.47;36.95;;;;;;;4.22;100.00;100535.66;5031776;28;20040;-57
2023/03/06 09:50:50;;;;;;;43.05;37.45;;;;;;;4.19;99.63;100533.13;5030279;28;20029;-58
2023/03/06 09:53:27;;;;;;;40.60;36.33;;;;;;;4.35;100.00;100535.13;5013035;28;20042;-58
2023/03/06 09:56:01;;;;;;;39.75;34.97;;;;;;;4.45;99.36;100531.19;5013328;28;20032;-58
2023/03/06 09:58:30;;;;;;;38.47;34.28;;;;;;;4.40;98.69;100527.91;5012916;28;20028;-57
2023/03/06 10:01:25;;;;;;;37.22;33.05;;;;;;;4.46;96.70;100528.47;5014240;28;20030;-57
2023/03/06 10:04:28;;;;;;;39.08;33.95;;;;;;;4.46;97.29;100527.63;5015831;28;20410;-57
2023/03/06 10:07:07;;;;;;;32.00;28.70;;;;;;;4.41;96.24;100527.84;5033601;28;20033;-58
2023/03/06 10:09:41;;;;;;;29.55;26.48;;;;;;;4.45;94.55;100536.47;5033252;28;20033;-58
2023/03/06 10:12:23;;;;;;;27.95;25.08;;;;;;;4.42;94.02;100518.16;5033493;28;20032;-58
2023/03/06 10:14:56;;;;;;;31.98;28.73;;;;;;;4.47;93.82;100522.31;5031760;28;20064;-57
2023/03/06 10:17:24;;;;;;;31.23;28.00;;;;;;;4.51;93.40;100525.66;5031919;28;20033;-58
2023/03/06 10:19:51;;;;;;;33.45;30.02;;;;;;;4.57;93.74;100527.19;5033240;28;20037;-58
2023/03/06 10:22:42;;;;;;;34.05;30.50;;;;;;;4.66;94.34;100522.34;5033270;28;20025;-57
2023/03/06 10:25:23;;;;;;;31.27;28.10;;;;;;;4.51;92.26;100521.25;5032107;28;20563;-58
2023/03/06 10:27:56;;;;;;;33.00;29.58;;;;;;;4.53;94.17;100523.81;5033109;28;20130;-58
2023/03/06 10:30:45;;;;;;;35.13;30.52;;;;;;;4.64;93.87;100516.28;5032860;28;20021;-57
2023/03/06 10:33:25;;;;;;;32.50;28.35;;;;;;;4.73;92.12;100520.28;5032746;28;20029;-58
2023/03/06 10:35:53;;;;;;;33.92;30.40;;;;;;;4.82;93.65;100509.34;5032264;28;20385;-58
2023/03/06 10:38:36;;;;;;;33.10;29.77;;;;;;;4.89;92.18;100521.34;5031520;28;20116;-58
2023/03/06 10:41:10;;;;;;;32.50;29.08;;;;;;;5.00;93.23;100520.88;5032329;28;20033;-58
2023/03/06 10:43:41;;;;;;;34.30;30.75;;;;;;;5.11;92.87;100520.34;5032403;28;20068;-58
2023/03/06 10:46:11;;;;;;;32.45;29.05;;;;;;;5.24;92.19;100519.72;5032471;28;20033;-57
2023/03/06 10:48:39;;;;;;;31.40;28.20;;;;;;;5.38;91.14;100519.09;5032359;28;20097;-58
2023/03/06 10:51:23;;;;;;;29.65;26.17;;;;;;;5.59;89.69;100518.97;5032241;28;20061;-58
2023/03/06 10:53:56;;;;;;;26.80;24.10;;;;;;;5.47;87.46;100517.78;5032853;28;20025;-58
2023/03/06 10:56:43;;;;;;;27.85;25.05;;;;;;;5.55;88.80;100514.78;5032158;28;20100;-58
2023/03/06 10:59:24;;;;;;;24.70;22.30;;;;;;;5.36;85.25;100518.31;5032576;28;20400;-58
2023/03/06 11:01:57;;;;;;;25.38;22.80;;;;;;;5.42;87.31;100525.06;5032309;28;20022;-58
2023/03/06 11:04:27;;;;;;;24.85;22.25;;;;;;;5.50;86.12;100528.22;5032355;28;20032;-58
2023/03/06 11:07:18;;;;;;;26.52;23.20;;;;;;;5.48;85.74;100527.44;5031851;28;20160;-58
2023/03/06 11:09:56;;;;;;;25.67;22.45;;;;;;;5.36;85.42;100526.22;5030632;28;20508;-58
2023/03/06 11:12:27;;;;;;;26.55;23.70;;;;;;;5.39;87.05;100522.59;5032429;28;20029;-58
2023/03/06 11:15:13;;;;;;;30.58;24.88;;;;;;;5.42;86.72;100520.66;5032532;28;20126;-58
2023/03/06 11:18:03;;;;;;;25.67;23.08;;;;;;;5.45;86.35;100517.88;5032106;28;20041;-58